Portada
METAR-TAF:

METAR-TAF

Aeropuertos :

Gran Canaria, España

Aeropuerto de Gran Canaria

latitud: 27-56N, longitud: 015-23W, altitud: 23 m

Observación

El informe se hizo hace 26 minutos, a las 18:00 UTC
Viento 19 kt del norte-noreste
Temperatura 22°C
Humedad 69%
Presión 1020 hPa
Visibilidad 10 km o más
Escasas nubes a una altura de 2500 ft
Cielo nuboso a una altura de 3500 ft

METAR: GCLP 271800Z 02019KT 9999 FEW025 BKN035 22/16 Q1020 NOSIG

Hora: 18:26 (18:26 UTC)

Pronóstico

El informe se hizo hace 4 horas y 26 minutos, a las 14:00 UTC
Pronóstico válido del 27 a las 15 UTC al 28 a las 15 UTC
Viento 18 kt del norte-noreste
Visibilidad 10 km o más
Nubes dispersas a una altura de 2500 ft

TAF: GCLP 271400Z 2715/2815 02018KT 9999 SCT025 TX24/2814Z TN20/2807Z

Observaciones y pronósticos meteorológicos de más de 4000 aeropuertos (mensajes METAR y TAF).

Los puntos amarillos y rojos representan las estaciones disponibles.

Ponga el ratón en el punto deseado para ver el nombre de la estación.

Haga clic para ver las observaciones y los pronósticos meteorológicos.

Para cambiar el mapa : haga clic en los botones verdes con una cruz de color negro para hacer un zoom, en el botón verde con un guión para alejar o en las flechas verdes para mapas adyacentes.


METAR-TAF: